Hlavní strana
METAR-TAF:

METAR-TAF

Letiště :

Newark-Heath Airport

Newark, Ohio, Spojené státy americké

zeměpisná šířka: 40-01-22N, zeměpisná délka: 082-27-45W, výška: 269 m

Aktuální stav počasí

Zpráva byla vytvořena před 32 minutami, v 03:54 UTC
Jihozápadní vítr 14 kt
Teplota 13°C
Vlhkost vzduchu 72%
Tlak 1013 hPa
Viditelnost: 16.1 km
Zataženo ve výšce 2100 ft

METAR: KVTA 220354Z AUTO 22014KT 10SM OVC021 13/08 A2992 RMK AO2 SLP132 T01280078

Čas: 23:26 (04:26 UTC)


TAF: chybějící

Stav a předpovědi počasí z více než 4 000 letišť (zprávy METAR a TAF).

Červené a žluté tečky na mapě představují dostupné meteorologické stanice.

Když kurzor umístíte na tečku, zobrazí se název stanice.

Pak kliknutím zobrazíte stav a předpověď počasí.

Chcete-li změnit mapu, kliknutím na zelené tlačítko se znaménkem +mapu přiblížíte, kliknutím na zelené tlačítko se znaménkem – mapu oddálíte a kliknutím na zelené šipky přejdete na sousední mapy.


METAR-TAF: